Terminal Aerodrome Forecast
Issued by NWS

Home | Current Version | Previous Version | Text Only | Print | Product List | Glossary On
Versions: 1 2 3 4 5 6 7 8 9 10 11 12 13 14 15 16 17 18 19 20 21
000
FTUS44 KMAF 230500
TAFINK
TAF
KINK 230521Z 2306/2406 11005KT P6SM SKC
     FM231200 08004KT 3SM BR OVC005
     FM231600 VRB03KT P6SM FEW250
     FM231900 20004KT P6SM SCT045 SCT250
     FM240000 11005KT P6SM SKC=

USA.gov is the U.S. government's official web portal to all federal, state and local government web resources and services.